Time;durP1;ratioP1;P1;durP2;ratioP2;P2;SDS_P1;SDS_P2;PMS_P1;PMS_P2;Temp;Humidity;BMP_temperature;BMP_pressure;BME280_temperature;BME280_humidity;BME280_pressure;Samples;Min_cycle;Max_cycle;Signal;HPM_P1;HPM_P2
2022/08/05 00:01:21;;;;;;;4.37;3.20;;;;;;;27.91;47.11;98292.13;6920854;28;20262;-81
2022/08/05 00:04:44;;;;;;;4.00;3.40;;;;;;;27.75;47.14;98294.56;6920440;28;20223;-80
2022/08/05 00:08:07;;;;;;;4.10;3.60;;;;;;;27.71;47.49;98290.03;6925686;28;20286;-80
2022/08/05 00:11:29;;;;;;;6.43;3.70;;;;;;;27.99;46.53;98292.13;6946854;28;20209;-80
2022/08/05 00:14:51;;;;;;;3.67;3.30;;;;;;;27.89;47.09;98281.38;6947488;28;20278;-80
2022/08/05 00:18:14;;;;;;;4.10;3.73;;;;;;;28.17;46.29;98279.00;6948979;28;20246;-80
2022/08/05 00:21:35;;;;;;;3.77;3.47;;;;;;;28.24;46.45;98277.34;6951862;28;20210;-80
2022/08/05 00:24:57;;;;;;;4.03;3.47;;;;;;;27.87;46.93;98269.81;6953522;28;20208;-80
2022/08/05 00:28:18;;;;;;;3.50;3.20;;;;;;;27.33;49.10;98281.59;6961792;28;20234;-80
2022/08/05 00:31:40;;;;;;;4.53;3.80;;;;;;;27.03;49.58;98260.38;6943524;28;20278;-80
2022/08/05 00:35:03;;;;;;;5.30;3.80;;;;;;;26.64;50.42;98243.03;6954144;28;20214;-80
2022/08/05 00:38:24;;;;;;;4.53;3.60;;;;;;;26.86;49.89;98288.03;6954877;28;20209;-80
2022/08/05 00:41:48;;;;;;;4.10;3.60;;;;;;;27.31;49.11;98292.16;6957222;28;20286;-80
2022/08/05 00:45:10;;;;;;;4.97;3.37;;;;;;;26.90;48.08;98181.06;6960159;28;20207;-80
2022/08/05 00:48:31;;;;;;;4.10;3.30;;;;;;;27.90;46.99;98296.84;6960280;28;20245;-80
2022/08/05 00:51:54;;;;;;;4.17;3.47;;;;;;;27.71;47.46;98293.59;6958989;28;20241;-80
2022/08/05 00:55:16;;;;;;;6.73;3.43;;;;;;;27.87;46.89;98300.28;6959455;28;20256;-79
2022/08/05 00:58:38;;;;;;;3.50;3.20;;;;;;;28.06;46.38;98269.41;6963601;28;20662;-80
2022/08/05 01:01:59;;;;;;;3.73;3.40;;;;;;;27.56;47.79;98305.19;6963460;28;20258;-80
2022/08/05 01:05:21;;;;;;;4.23;3.40;;;;;;;27.54;47.58;98312.19;6953019;28;20671;-80
2022/08/05 01:08:44;;;;;;;3.70;3.33;;;;;;;27.70;47.01;98305.81;6952483;28;20203;-80
2022/08/05 01:12:09;;;;;;;4.47;3.63;;;;;;;27.61;47.98;98334.69;6954271;28;20265;-80
2022/08/05 01:15:34;;;;;;;4.93;3.60;;;;;;;27.20;49.03;98350.94;6953343;28;20394;-80
2022/08/05 01:19:00;;;;;;;4.20;3.53;;;;;;;27.05;49.19;98370.72;6951005;28;20204;-80
2022/08/05 01:22:30;;;;;;;3.97;3.60;;;;;;;26.73;50.02;98371.13;6956985;28;20231;-80
2022/08/05 01:26:05;;;;;;;6.77;4.00;;;;;;;27.28;48.53;98353.72;6953882;28;20198;-80
2022/08/05 01:29:32;;;;;;;3.50;3.20;;;;;;;27.70;46.91;98361.22;6951294;28;20354;-80
2022/08/05 01:32:56;;;;;;;4.40;3.60;;;;;;;26.22;51.16;98391.00;6954073;28;20890;-79
2022/08/05 01:36:19;;;;;;;4.20;3.83;;;;;;;26.67;49.65;98386.25;6953989;28;20233;-80
2022/08/05 01:39:40;;;;;;;4.43;4.03;;;;;;;26.49;49.01;98371.47;6953929;28;20204;-79
2022/08/05 01:43:03;;;;;;;4.20;3.80;;;;;;;27.36;47.36;98363.97;6953490;28;20259;-80
2022/08/05 01:46:26;;;;;;;4.47;4.10;;;;;;;26.90;47.75;98391.34;6957597;28;20215;-80
2022/08/05 01:49:50;;;;;;;4.47;3.90;;;;;;;27.56;45.89;98393.00;6955997;28;20220;-79
2022/08/05 01:53:13;;;;;;;5.13;3.83;;;;;;;27.36;44.73;98386.13;6955084;28;20238;-79
2022/08/05 01:56:39;;;;;;;4.20;3.80;;;;;;;28.00;43.04;98401.84;6955149;28;20591;-80
2022/08/05 02:00:03;;;;;;;5.97;3.60;;;;;;;27.75;42.55;98402.63;6955706;28;20594;-80
2022/08/05 02:03:29;;;;;;;5.83;3.60;;;;;;;27.92;41.99;98415.69;6954291;28;20221;-80
2022/08/05 02:06:50;;;;;;;4.47;3.53;;;;;;;27.81;41.98;98404.13;6954109;28;20254;-80
2022/08/05 02:10:12;;;;;;;3.53;3.23;;;;;;;28.27;40.54;98409.81;6954272;28;20207;-80
2022/08/05 02:13:39;;;;;;;6.67;3.23;;;;;;;27.80;40.66;98391.44;6955663;28;20261;-80
2022/08/05 02:17:05;;;;;;;4.87;3.50;;;;;;;27.81;40.84;98409.69;6959299;28;20216;-80
2022/08/05 02:20:32;;;;;;;5.03;3.10;;;;;;;27.84;40.55;98403.47;6966418;28;20293;-80
2022/08/05 02:23:57;;;;;;;4.03;3.10;;;;;;;27.91;40.27;98409.34;6956048;28;20234;-80
2022/08/05 02:27:19;;;;;;;3.57;2.90;;;;;;;28.25;39.35;98391.88;6961262;28;20197;-79
2022/08/05 02:30:45;;;;;;;8.27;3.20;;;;;;;28.37;39.15;98389.25;6959848;28;20208;-80
2022/08/05 02:34:10;;;;;;;6.27;2.83;;;;;;;27.98;40.16;98397.75;6955886;28;20242;-80
2022/08/05 02:37:33;;;;;;;4.53;3.30;;;;;;;28.18;39.99;98405.41;6955635;28;20204;-80
2022/08/05 02:40:55;;;;;;;5.47;3.07;;;;;;;28.48;39.20;98399.66;6954246;28;20565;-80
2022/08/05 02:44:17;;;;;;;3.27;2.93;;;;;;;28.43;39.59;98402.59;6960414;28;20284;-80
2022/08/05 02:47:40;;;;;;;6.67;2.63;;;;;;;28.31;40.10;98405.22;6949589;28;20684;-80
2022/08/05 02:51:03;;;;;;;5.70;2.83;;;;;;;28.61;39.95;98408.94;6949642;28;20293;-79
2022/08/05 02:54:26;;;;;;;7.73;3.23;;;;;;;28.37;40.48;98406.69;6949749;28;20256;-80
2022/08/05 02:57:48;;;;;;;3.80;3.00;;;;;;;28.67;39.59;98388.97;6949278;28;20748;-80
2022/08/05 03:01:14;;;;;;;4.63;2.63;;;;;;;29.05;39.95;98409.25;6954273;28;20250;-80
2022/08/05 03:04:36;;;;;;;4.73;3.10;;;;;;;28.37;42.27;98403.13;6951519;28;20223;-80
2022/08/05 03:07:58;;;;;;;5.60;3.57;;;;;;;27.29;45.10;98420.97;6952675;28;20703;-80
2022/08/05 03:11:22;;;;;;;3.43;3.13;;;;;;;27.11;44.38;98337.06;6951322;28;20288;-80
2022/08/05 03:14:44;;;;;;;6.83;3.13;;;;;;;27.89;43.71;98421.91;6952559;28;20237;-80
2022/08/05 03:18:05;;;;;;;3.67;3.30;;;;;;;27.90;44.09;98432.66;6953407;28;20249;-78
2022/08/05 03:21:27;;;;;;;5.60;3.30;;;;;;;27.51;45.51;98431.94;6951199;28;20207;-80
2022/08/05 03:24:49;;;;;;;4.83;3.63;;;;;;;26.56;48.21;98429.97;6952585;28;20205;-80
2022/08/05 03:28:12;;;;;;;5.00;3.13;;;;;;;26.46;48.55;98446.78;6952233;28;20678;-79
2022/08/05 03:31:34;;;;;;;3.53;3.30;;;;;;;26.82;47.67;98447.50;6951323;28;20288;-79
2022/08/05 03:34:55;;;;;;;6.07;3.67;;;;;;;26.94;47.39;98460.72;6953995;28;20706;-79
2022/08/05 03:38:17;;;;;;;4.70;3.53;;;;;;;26.63;48.12;98457.16;6950806;28;20292;-79
2022/08/05 03:41:38;;;;;;;4.17;3.63;;;;;;;26.49;47.81;98423.22;6950648;28;20211;-79
2022/08/05 03:45:02;;;;;;;6.17;3.77;;;;;;;26.54;47.89;98456.31;6951250;28;20266;-79
2022/08/05 03:48:23;;;;;;;3.67;3.37;;;;;;;26.72;47.61;98455.25;6950752;28;20207;-80
2022/08/05 03:51:51;;;;;;;3.97;3.50;;;;;;;26.61;47.96;98451.94;6953225;28;20254;-79
2022/08/05 03:55:18;;;;;;;4.03;3.53;;;;;;;26.26;49.21;98463.06;6956306;28;20238;-79
2022/08/05 03:58:42;;;;;;;3.77;3.33;;;;;;;26.41;49.27;98470.97;6956323;28;20207;-80
2022/08/05 04:02:05;;;;;;;5.87;3.63;;;;;;;26.09;49.62;98443.59;6956383;28;20222;-80
2022/08/05 04:05:31;;;;;;;5.37;3.40;;;;;;;25.92;50.61;98471.91;6974764;28;20191;-79
2022/08/05 04:08:53;;;;;;;4.13;3.73;;;;;;;25.80;50.49;98460.56;6975655;28;20177;-81
2022/08/05 04:12:14;;;;;;;5.57;3.63;;;;;;;26.14;49.56;98443.47;6962089;28;20234;-80
2022/08/05 04:15:36;;;;;;;4.17;3.57;;;;;;;26.37;48.51;98425.75;6952725;28;20254;-80
2022/08/05 04:18:59;;;;;;;6.67;3.60;;;;;;;26.25;49.03;98428.28;6953391;28;20210;-80
2022/08/05 04:22:21;;;;;;;6.73;3.70;;;;;;;26.36;48.47;98435.19;6958616;28;20227;-80
2022/08/05 04:25:42;;;;;;;4.23;3.20;;;;;;;26.67;47.52;98463.69;6949611;28;20342;-80
2022/08/05 04:29:04;;;;;;;3.27;3.03;;;;;;;26.75;47.18;98460.97;6954067;28;20203;-80
2022/08/05 04:32:25;;;;;;;4.10;3.00;;;;;;;26.60;47.51;98469.66;6958871;28;20253;-80
2022/08/05 04:35:48;;;;;;;4.03;3.40;;;;;;;26.28;48.39;98492.03;6947690;28;20224;-80
2022/08/05 04:39:10;;;;;;;4.67;3.63;;;;;;;26.34;48.30;98482.47;6948259;28;20227;-79
2022/08/05 04:42:31;;;;;;;6.03;3.60;;;;;;;26.62;47.08;98497.84;6925330;28;20365;-80
2022/08/05 04:45:53;;;;;;;4.40;3.10;;;;;;;27.08;46.81;98536.16;6924439;28;20196;-80
2022/08/05 04:49:15;;;;;;;5.50;3.40;;;;;;;26.89;47.35;98538.34;6920212;28;20356;-80
2022/08/05 04:52:38;;;;;;;8.03;3.33;;;;;;;26.84;47.72;98557.84;6945625;28;20277;-80
2022/08/05 04:55:59;;;;;;;7.00;3.20;;;;;;;26.98;47.23;98562.16;6948024;28;20231;-80
2022/08/05 04:59:21;;;;;;;7.10;3.63;;;;;;;26.93;47.38;98567.84;6937244;28;20266;-81
2022/08/05 05:02:43;;;;;;;5.53;3.70;;;;;;;26.92;47.10;98574.50;6921193;28;20239;-82
2022/08/05 05:06:05;;;;;;;6.27;3.50;;;;;;;27.02;46.93;98581.72;6920784;28;20276;-82
2022/08/05 05:09:27;;;;;;;6.57;3.37;;;;;;;27.13;46.65;98608.00;6926215;28;20192;-80
2022/08/05 05:12:49;;;;;;;5.13;3.53;;;;;;;27.38;46.00;98582.44;6947435;28;20242;-79
2022/08/05 05:16:11;;;;;;;6.67;3.80;;;;;;;27.55;46.10;98629.59;6948176;28;20230;-79
2022/08/05 05:19:32;;;;;;;4.70;3.47;;;;;;;27.32;46.72;98650.97;6948082;28;20242;-79
2022/08/05 05:22:54;;;;;;;4.67;3.83;;;;;;;27.36;46.54;98653.94;6953706;28;20675;-79
2022/08/05 05:26:17;;;;;;;9.73;4.17;;;;;;;27.38;46.37;98633.09;6955070;28;20272;-79
2022/08/05 05:29:38;;;;;;;5.47;4.03;;;;;;;27.57;45.99;98658.63;6958097;28;20283;-80
2022/08/05 05:33:01;;;;;;;4.50;3.63;;;;;;;28.12;44.74;98654.28;6954510;28;20746;-81
2022/08/05 05:36:23;;;;;;;7.90;3.77;;;;;;;27.84;44.93;98638.22;6954906;28;20262;-82
2022/08/05 05:39:44;;;;;;;5.43;3.77;;;;;;;28.04;45.61;98663.41;6956096;28;20543;-82
2022/08/05 05:43:07;;;;;;;6.30;4.07;;;;;;;28.50;44.17;98643.44;6956672;28;20237;-81
2022/08/05 05:46:29;;;;;;;11.00;4.13;;;;;;;28.96;42.79;98666.66;6957106;28;20213;-81
2022/08/05 05:49:50;;;;;;;5.03;3.73;;;;;;;29.86;41.91;98688.56;6956903;28;20297;-82
2022/08/05 05:53:12;;;;;;;5.87;4.00;;;;;;;30.22;41.29;98697.25;6957423;28;20238;-82
2022/08/05 05:56:33;;;;;;;5.53;4.10;;;;;;;30.17;41.41;98702.19;6957479;28;20220;-79
2022/08/05 05:59:56;;;;;;;7.90;4.17;;;;;;;29.76;41.30;98705.59;6953262;28;20215;-81
2022/08/05 06:03:18;;;;;;;9.67;4.57;;;;;;;29.66;41.70;98700.38;6966932;28;20249;-82
2022/08/05 06:06:41;;;;;;;5.10;4.10;;;;;;;30.02;41.27;98724.97;6957938;28;20213;-81
2022/08/05 06:10:02;;;;;;;9.73;3.73;;;;;;;30.63;40.22;98713.22;6959990;28;20210;-81
2022/08/05 06:13:24;;;;;;;13.23;3.87;;;;;;;30.57;41.06;98707.03;6953811;28;20231;-82
2022/08/05 06:16:47;;;;;;;9.00;4.30;;;;;;;30.44;41.10;98722.00;6953386;28;20259;-81
2022/08/05 06:20:09;;;;;;;8.93;3.87;;;;;;;31.22;40.17;98715.59;6954897;28;20231;-82
2022/08/05 06:23:31;;;;;;;7.63;3.63;;;;;;;31.77;37.73;98679.00;6956704;28;20235;-81
2022/08/05 06:26:53;;;;;;;6.47;3.47;;;;;;;31.53;37.82;98690.03;6954883;28;20201;-82
2022/08/05 06:30:15;;;;;;;5.57;3.50;;;;;;;32.22;36.96;98697.28;6954862;28;20229;-81
2022/08/05 06:33:38;;;;;;;4.60;3.47;;;;;;;32.36;36.85;98694.97;6954195;28;20225;-80
2022/08/05 06:37:00;;;;;;;8.90;3.40;;;;;;;32.82;35.01;98686.09;6957088;28;20229;-81
2022/08/05 06:40:21;;;;;;;7.47;3.50;;;;;;;33.32;33.97;98688.41;6956113;28;20215;-86
2022/08/05 06:43:43;;;;;;;7.07;3.27;;;;;;;32.68;34.86;98694.00;6954404;28;20642;-81
2022/08/05 06:47:05;;;;;;;6.57;3.07;;;;;;;32.44;34.69;98701.59;6954560;28;20211;-81
2022/08/05 06:50:28;;;;;;;4.87;2.83;;;;;;;32.35;35.24;98673.81;6952579;28;20357;-81
2022/08/05 06:53:49;;;;;;;7.80;3.17;;;;;;;32.54;34.74;98685.19;6953812;28;20223;-81
2022/08/05 06:57:13;;;;;;;5.27;3.17;;;;;;;32.53;34.83;98685.53;6955562;28;20753;-85
2022/08/05 07:00:35;;;;;;;3.83;2.83;;;;;;;32.67;34.75;98683.19;6953034;28;20675;-81
2022/08/05 07:03:56;;;;;;;8.37;3.30;;;;;;;32.86;33.33;98603.22;6955204;28;20219;-81
2022/08/05 07:07:19;;;;;;;5.13;3.20;;;;;;;33.92;32.53;98676.88;6954120;28;20234;-81
2022/08/05 07:10:41;;;;;;;6.80;2.87;;;;;;;33.88;32.38;98689.97;6954035;28;20199;-81
2022/08/05 07:17:56;;;;;;;7.37;2.83;;;;;;;33.59;32.38;98707.94;6840954;29;20205;-82
2022/08/05 07:21:17;;;;;;;4.60;2.60;;;;;;;33.50;33.22;98721.25;6852604;28;20223;-82
2022/08/05 07:24:40;;;;;;;4.17;3.13;;;;;;;32.61;34.40;98721.69;6936102;28;20291;-81
2022/08/05 07:28:02;;;;;;;2.93;2.50;;;;;;;32.94;32.82;98732.72;6925476;28;20273;-82
2022/08/05 07:31:23;;;;;;;4.17;2.73;;;;;;;34.16;31.82;98725.09;6926109;28;20285;-81
2022/08/05 07:34:45;;;;;;;5.50;2.93;;;;;;;34.04;31.44;98729.97;6925429;28;20204;-81
2022/08/05 07:38:07;;;;;;;5.40;2.80;;;;;;;34.46;31.13;98672.25;6946637;28;20286;-81
2022/08/05 07:41:30;;;;;;;5.67;2.47;;;;;;;34.77;29.71;98723.47;6953548;28;20199;-82
2022/08/05 07:44:51;;;;;;;6.10;2.90;;;;;;;33.69;31.68;98737.38;6952508;28;20210;-82
2022/08/05 07:48:13;;;;;;;3.63;2.80;;;;;;;33.76;31.89;98727.19;6954423;28;20226;-81
2022/08/05 07:51:35;;;;;;;2.57;2.37;;;;;;;33.70;30.76;98737.03;6960405;28;20242;-82
2022/08/05 07:54:57;;;;;;;3.57;2.60;;;;;;;34.08;31.09;98726.06;6959235;28;20631;-81
2022/08/05 07:58:20;;;;;;;8.00;3.20;;;;;;;34.52;29.98;98732.41;6952045;28;20199;-82
2022/08/05 08:01:41;;;;;;;5.23;2.90;;;;;;;34.62;30.09;98738.28;6952120;28;20211;-82
2022/08/05 08:05:03;;;;;;;3.73;2.43;;;;;;;34.35;30.31;98719.63;6952028;28;20206;-84
2022/08/05 08:08:25;;;;;;;3.23;2.90;;;;;;;34.37;30.92;98739.66;6951461;28;20191;-83
2022/08/05 08:11:46;;;;;;;5.20;2.50;;;;;;;34.90;30.70;98729.75;6944417;28;20250;-83
2022/08/05 08:15:10;;;;;;;5.27;2.80;;;;;;;34.77;29.75;98743.06;6950251;28;20219;-83
2022/08/05 08:18:32;;;;;;;5.20;2.40;;;;;;;34.92;29.57;98742.22;6959976;28;20208;-83
2022/08/05 08:21:54;;;;;;;3.83;2.90;;;;;;;35.64;28.07;98740.59;6977322;28;20199;-82
2022/08/05 08:25:17;;;;;;;4.43;2.50;;;;;;;34.67;28.45;98740.78;6971896;28;20199;-81
2022/08/05 08:28:38;;;;;;;2.83;2.40;;;;;;;35.49;28.02;98733.88;6949069;28;20287;-81
2022/08/05 08:32:01;;;;;;;4.40;2.47;;;;;;;34.81;27.43;98727.16;6950433;28;20596;-81
2022/08/05 08:35:23;;;;;;;12.07;2.30;;;;;;;34.03;28.38;98717.94;6953560;28;20277;-81
2022/08/05 08:38:44;;;;;;;3.50;2.30;;;;;;;35.01;27.17;98740.03;6952102;28;20209;-81
2022/08/05 08:42:08;;;;;;;5.70;2.10;;;;;;;34.63;28.10;98723.09;6953631;28;20219;-81
2022/08/05 08:45:30;;;;;;;2.93;2.20;;;;;;;35.28;26.40;98715.81;6957692;28;20199;-81
2022/08/05 08:48:54;;;;;;;3.87;2.10;;;;;;;35.35;26.35;98719.56;6949373;28;20214;-81
2022/08/05 08:52:21;;;;;;;2.30;2.10;;;;;;;36.41;24.89;98734.47;6950970;28;20308;-81
2022/08/05 08:55:43;;;;;;;2.97;2.20;;;;;;;36.32;25.30;98702.19;6946349;28;20223;-81
2022/08/05 08:59:04;;;;;;;3.87;2.37;;;;;;;35.56;26.17;98710.78;6947148;28;20219;-81
2022/08/05 09:02:26;;;;;;;2.87;2.20;;;;;;;35.64;25.71;98704.09;6954553;28;20234;-82
2022/08/05 09:05:49;;;;;;;2.17;1.90;;;;;;;35.69;25.44;98686.97;6953864;28;20203;-81
2022/08/05 09:09:10;;;;;;;3.50;2.40;;;;;;;36.25;24.97;98702.88;6953047;28;20199;-82
2022/08/05 09:12:32;;;;;;;3.07;2.23;;;;;;;36.51;25.06;98708.53;6953585;28;20219;-82
2022/08/05 09:15:54;;;;;;;2.77;2.33;;;;;;;36.52;25.02;98698.91;6953990;28;20281;-81
2022/08/05 09:19:15;;;;;;;2.37;2.17;;;;;;;35.87;24.98;98699.38;6954368;28;20675;-82
2022/08/05 09:23:06;;;;;;;2.10;1.90;;;;;;;34.58;27.10;98675.75;6955224;28;20227;-82
2022/08/05 09:26:28;;;;;;;3.33;2.13;;;;;;;33.86;27.93;98676.34;6945634;28;20207;-79
2022/08/05 09:29:50;;;;;;;3.30;2.17;;;;;;;34.96;26.46;98673.03;6954216;28;20848;-79
2022/08/05 09:33:12;;;;;;;2.60;2.40;;;;;;;35.59;25.51;98667.94;6955518;28;20647;-79
2022/08/05 09:36:44;;;;;;;2.93;2.10;;;;;;;36.17;24.87;98669.44;6955990;28;20234;-79
2022/08/05 09:40:09;;;;;;;2.00;1.90;;;;;;;36.42;24.07;98643.38;6957198;28;20245;-79
2022/08/05 09:43:32;;;;;;;2.20;2.00;;;;;;;35.48;25.41;98636.88;6960200;28;20227;-81
2022/08/05 09:47:07;;;;;;;3.60;2.13;;;;;;;35.57;25.35;98643.09;6953509;28;20203;-82
2022/08/05 09:50:35;;;;;;;3.00;1.97;;;;;;;36.61;24.18;98651.69;6955541;28;20219;-82
2022/08/05 09:53:57;;;;;;;2.80;1.90;;;;;;;37.49;23.00;98639.63;6957164;28;20219;-82
2022/08/05 09:57:30;;;;;;;3.53;1.80;;;;;;;37.43;23.67;98637.53;6955881;28;20223;-81
2022/08/05 10:00:57;;;;;;;2.30;2.10;;;;;;;38.13;22.52;98636.25;6938186;28;20208;-82
2022/08/05 10:04:19;;;;;;;3.47;1.83;;;;;;;38.50;22.27;98641.81;6948592;28;20218;-82
2022/08/05 10:07:44;;;;;;;1.97;1.87;;;;;;;37.90;22.97;98648.91;6955421;28;20213;-82
2022/08/05 10:11:14;;;;;;;3.07;1.97;;;;;;;38.47;22.00;98632.13;6956414;28;20268;-82
2022/08/05 10:14:37;;;;;;;2.87;1.93;;;;;;;38.25;22.15;98590.09;6956939;28;20720;-82
2022/08/05 10:18:13;;;;;;;2.10;1.90;;;;;;;37.78;22.62;98644.38;6946953;28;20227;-82
2022/08/05 10:21:34;;;;;;;5.38;2.20;;;;;;;37.82;22.85;98636.78;6951896;28;20198;-81
2022/08/05 10:24:56;;;;;;;2.10;1.90;;;;;;;36.66;23.66;98637.34;6960410;28;20207;-82
2022/08/05 10:28:18;;;;;;;3.33;2.03;;;;;;;37.15;23.72;98629.59;6951422;28;20663;-83
2022/08/05 10:31:41;;;;;;;2.00;1.90;;;;;;;38.51;22.42;98635.78;6952692;28;20211;-85
2022/08/05 10:35:02;;;;;;;3.83;1.90;;;;;;;37.46;23.67;98642.38;6953023;28;20221;-82
2022/08/05 10:38:26;;;;;;;2.10;2.00;;;;;;;38.27;22.36;98619.50;6951983;28;20227;-82
2022/08/05 10:41:55;;;;;;;2.85;1.92;;;;;;;39.28;20.62;98627.75;6950670;28;20231;-81
2022/08/05 10:45:25;;;;;;;7.78;2.60;;;;;;;39.34;21.03;98634.63;6950828;28;20292;-86
2022/08/05 10:48:49;;;;;;;3.23;2.10;;;;;;;38.04;21.35;98627.34;6950612;28;20280;-82
2022/08/05 10:52:10;;;;;;;1.90;1.80;;;;;;;38.40;21.47;98626.41;6951179;28;20256;-82
2022/08/05 10:55:32;;;;;;;4.30;2.50;;;;;;;38.66;21.66;98619.75;6952643;28;20227;-82
2022/08/05 10:59:06;;;;;;;2.40;2.20;;;;;;;38.97;20.67;98605.03;6928120;28;20219;-80
2022/08/05 11:02:27;;;;;;;3.10;2.28;;;;;;;38.15;21.62;98607.72;6929110;28;20232;-80
2022/08/05 11:06:05;;;;;;;2.27;2.00;;;;;;;38.96;20.10;98598.56;6924315;28;20238;-79
2022/08/05 11:09:27;;;;;;;2.38;2.17;;;;;;;38.90;20.54;98614.25;6929773;28;20610;-79
2022/08/05 11:12:49;;;;;;;2.33;1.90;;;;;;;37.32;21.89;98626.16;6952049;28;20220;-80
2022/08/05 11:16:24;;;;;;;2.25;1.80;;;;;;;37.18;22.20;98617.56;6952813;28;20853;-81
2022/08/05 11:19:47;;;;;;;2.40;1.93;;;;;;;37.71;21.47;98626.59;6946811;28;20265;-80
2022/08/05 11:23:36;;;;;;;5.83;2.13;;;;;;;36.50;22.91;98617.00;6954650;28;20223;-83
2022/08/05 11:27:29;;;;;;;2.60;1.83;;;;;;;37.20;23.43;98632.03;6954347;28;20183;-80
2022/08/05 11:31:26;;;;;;;2.00;1.80;;;;;;;37.79;22.57;98631.91;6962622;28;20215;-85
2022/08/05 11:34:48;;;;;;;2.03;1.77;;;;;;;37.82;21.52;98633.97;6955975;28;20187;-80
2022/08/05 11:38:09;;;;;;;3.28;1.88;;;;;;;38.81;21.01;98625.09;6952463;28;20226;-81
2022/08/05 11:41:35;;;;;;;2.65;1.90;;;;;;;38.20;21.18;98627.84;6951868;28;20560;-80
2022/08/05 11:45:02;;;;;;;2.72;2.08;;;;;;;38.31;20.98;98619.50;6948476;28;20226;-80
2022/08/05 11:48:24;;;;;;;2.42;2.00;;;;;;;38.83;20.91;98627.47;6952502;28;20191;-81
2022/08/05 11:51:47;;;;;;;2.30;2.10;;;;;;;39.25;20.34;98622.06;6953086;28;20304;-81
2022/08/05 11:55:10;;;;;;;2.58;2.08;;;;;;;39.82;19.41;98615.38;6952751;28;20683;-81
2022/08/05 11:58:36;;;;;;;2.30;2.03;;;;;;;39.86;19.70;98624.66;6953119;28;20298;-81
2022/08/05 12:01:59;;;;;;;2.45;1.80;;;;;;;38.84;20.64;98613.00;6937072;28;20253;-81
2022/08/05 12:05:26;;;;;;;4.13;2.03;;;;;;;39.91;19.84;98612.97;6932532;28;20204;-81
2022/08/05 12:08:49;;;;;;;4.30;2.03;;;;;;;40.03;19.59;98612.56;6924104;28;20270;-80
2022/08/05 12:12:10;;;;;;;3.08;2.20;;;;;;;40.81;18.75;98609.28;6950537;28;20591;-81
2022/08/05 12:15:34;;;;;;;3.65;2.00;;;;;;;38.20;20.89;98598.91;6950877;28;20293;-80
2022/08/05 12:18:55;;;;;;;2.20;2.00;;;;;;;39.18;20.61;98597.44;6949749;28;20318;-81
2022/08/05 12:22:18;;;;;;;4.93;1.85;;;;;;;39.98;19.11;98581.91;6953324;28;20239;-80
2022/08/05 12:25:50;;;;;;;4.40;2.17;;;;;;;40.13;19.18;98583.56;6958935;28;20203;-81
2022/08/05 12:29:14;;;;;;;2.10;2.00;;;;;;;38.34;20.92;98596.16;6952972;28;20206;-81
2022/08/05 12:32:44;;;;;;;2.20;2.10;;;;;;;39.13;20.11;98574.47;6957428;28;20854;-81
2022/08/05 12:36:07;;;;;;;3.45;2.00;;;;;;;39.46;20.04;98582.63;6958523;28;20202;-81
2022/08/05 12:39:28;;;;;;;2.00;1.83;;;;;;;38.46;21.17;98581.78;6957786;28;20276;-81
2022/08/05 12:42:50;;;;;;;2.17;2.03;;;;;;;37.29;21.77;98586.75;6958491;28;20816;-81
2022/08/05 12:46:20;;;;;;;4.47;2.20;;;;;;;37.71;21.97;98568.31;6958939;28;20203;-81
2022/08/05 12:49:45;;;;;;;3.10;2.08;;;;;;;36.97;22.60;98571.50;6961265;28;20206;-81
2022/08/05 12:53:06;;;;;;;2.57;2.37;;;;;;;37.79;21.72;98560.72;6973282;28;20230;-81
2022/08/05 12:56:29;;;;;;;2.80;2.13;;;;;;;38.54;21.40;98561.69;6954040;28;20257;-81
2022/08/05 12:59:52;;;;;;;4.55;1.88;;;;;;;39.95;20.05;98554.47;6953366;28;20285;-81
2022/08/05 13:03:14;;;;;;;3.47;2.00;;;;;;;38.76;21.25;98523.97;6950042;28;20234;-81
2022/08/05 13:06:42;;;;;;;3.35;2.17;;;;;;;38.17;21.96;98540.50;6956168;28;20264;-82
2022/08/05 13:10:10;;;;;;;2.25;2.05;;;;;;;39.49;20.66;98537.47;6947787;28;20195;-82
2022/08/05 13:13:31;;;;;;;2.38;2.15;;;;;;;39.82;19.97;98548.41;6939848;28;20227;-81
2022/08/05 13:16:55;;;;;;;2.33;2.13;;;;;;;40.42;19.47;98554.00;6958240;28;20239;-82
2022/08/05 13:20:17;;;;;;;2.30;2.10;;;;;;;39.48;20.15;98535.88;6959368;28;20207;-82
2022/08/05 13:23:40;;;;;;;2.30;2.10;;;;;;;39.38;20.53;98545.13;6963884;28;20259;-82
2022/08/05 13:27:02;;;;;;;2.30;2.03;;;;;;;39.98;19.68;98546.00;6953598;28;20685;-81
2022/08/05 13:30:24;;;;;;;2.42;2.10;;;;;;;39.58;20.16;98539.91;6952343;28;20203;-81
2022/08/05 13:33:46;;;;;;;3.15;2.30;;;;;;;39.32;20.70;98529.00;6953442;28;20294;-81
2022/08/05 13:37:07;;;;;;;3.50;2.20;;;;;;;39.89;19.80;98545.59;6953170;28;20312;-84
2022/08/05 13:40:30;;;;;;;3.15;2.30;;;;;;;39.51;20.31;98534.25;6951800;28;20581;-81
2022/08/05 13:43:52;;;;;;;1.90;1.80;;;;;;;40.19;19.41;98528.25;6951302;28;20320;-82
2022/08/05 13:47:14;;;;;;;3.65;2.40;;;;;;;39.07;20.79;98526.09;6952652;28;20249;-82
2022/08/05 13:50:35;;;;;;;3.45;2.38;;;;;;;39.51;20.10;98484.28;6952002;28;20210;-81
2022/08/05 13:53:58;;;;;;;3.00;2.25;;;;;;;39.37;20.62;98508.84;6951705;28;20231;-81
2022/08/05 13:57:21;;;;;;;2.83;2.20;;;;;;;39.20;20.30;98468.06;6953655;28;20258;-81
2022/08/05 14:00:42;;;;;;;2.40;2.15;;;;;;;39.85;20.47;98495.97;6952690;28;20300;-81
2022/08/05 14:07:45;;;;;;;2.92;2.17;;;;;;;37.65;22.17;98510.75;6952082;28;20183;-81
2022/08/05 14:11:06;;;;;;;2.50;2.30;;;;;;;38.89;21.20;98513.13;6952904;28;20264;-81
2022/08/05 14:14:29;;;;;;;4.97;2.47;;;;;;;38.86;21.18;98509.13;6952160;28;20378;-82
2022/08/05 14:17:51;;;;;;;4.90;2.50;;;;;;;37.74;21.98;98514.06;6950760;28;20235;-81
2022/08/05 14:21:12;;;;;;;4.17;2.20;;;;;;;38.16;22.29;98502.28;6926294;28;20246;-82
2022/08/05 14:24:34;;;;;;;2.30;2.10;;;;;;;38.24;21.59;98499.13;6945101;28;20243;-82
2022/08/05 14:27:56;;;;;;;2.87;2.20;;;;;;;37.71;22.28;98492.31;6952110;28;20214;-81
2022/08/05 14:31:19;;;;;;;3.10;2.30;;;;;;;38.35;21.58;98504.81;6952266;28;20261;-81
2022/08/05 14:34:40;;;;;;;2.27;2.07;;;;;;;37.80;22.19;98503.22;6952476;28;20727;-81
2022/08/05 14:38:02;;;;;;;2.20;2.10;;;;;;;37.01;22.71;98504.88;6932567;28;20243;-81
2022/08/05 14:41:24;;;;;;;2.60;2.40;;;;;;;37.23;22.91;98521.59;6924435;28;20212;-81
2022/08/05 14:44:45;;;;;;;2.90;2.17;;;;;;;36.93;23.60;98515.22;6925152;28;20228;-81
2022/08/05 14:48:08;;;;;;;4.60;2.40;;;;;;;36.81;23.56;98532.34;6925008;28;20693;-81
2022/08/05 14:51:30;;;;;;;2.83;2.30;;;;;;;37.24;23.59;98525.22;6925389;28;20299;-85
2022/08/05 14:54:51;;;;;;;4.33;2.23;;;;;;;36.37;24.29;98531.34;6928021;28;20211;-82
2022/08/05 14:58:13;;;;;;;2.60;2.23;;;;;;;36.13;24.33;98523.34;6940147;28;20312;-82
2022/08/05 15:01:35;;;;;;;2.93;2.40;;;;;;;35.78;24.80;98527.63;6944308;28;20688;-82
2022/08/05 15:04:58;;;;;;;2.77;2.10;;;;;;;35.48;25.38;98519.09;6925569;28;20196;-81
2022/08/05 15:08:19;;;;;;;3.27;2.37;;;;;;;34.60;28.09;98526.97;6951924;28;20210;-81
2022/08/05 15:11:41;;;;;;;7.57;2.63;;;;;;;35.04;27.86;98515.06;6951768;28;20207;-82
2022/08/05 15:15:03;;;;;;;4.40;2.50;;;;;;;34.14;29.44;98531.50;6951870;28;20207;-81
2022/08/05 15:18:24;;;;;;;4.90;2.70;;;;;;;34.82;29.00;98557.03;6938834;28;20235;-82
2022/08/05 15:21:47;;;;;;;2.90;2.60;;;;;;;34.64;28.87;98541.81;6924537;28;20298;-81
2022/08/05 15:25:09;;;;;;;4.27;2.70;;;;;;;34.66;29.06;98564.69;6924739;28;20231;-81
2022/08/05 15:28:31;;;;;;;4.27;2.73;;;;;;;35.16;28.80;98592.56;6924895;28;20351;-81
2022/08/05 15:31:52;;;;;;;3.10;2.87;;;;;;;34.94;29.61;98582.09;6925832;28;20246;-81
2022/08/05 15:35:14;;;;;;;3.73;2.63;;;;;;;34.52;30.19;98553.16;6926485;28;20231;-81
2022/08/05 15:38:37;;;;;;;3.43;2.67;;;;;;;34.92;29.61;98546.06;6925313;28;20238;-81
2022/08/05 15:41:58;;;;;;;4.33;2.90;;;;;;;35.20;30.13;98566.22;6925146;28;20286;-83
2022/08/05 15:45:20;;;;;;;3.47;3.17;;;;;;;35.59;29.91;98601.44;6952066;28;20199;-80
2022/08/05 15:48:42;;;;;;;7.40;3.00;;;;;;;35.04;31.74;98617.94;6950445;28;20249;-80
2022/08/05 15:52:04;;;;;;;3.93;2.90;;;;;;;34.08;32.95;98614.13;6952212;28;20239;-85
2022/08/05 15:55:27;;;;;;;3.03;2.80;;;;;;;34.53;32.23;98613.59;6940585;28;20211;-82
2022/08/05 15:58:48;;;;;;;5.27;3.10;;;;;;;34.88;31.71;98606.81;6922054;28;20262;-82
2022/08/05 16:02:10;;;;;;;5.23;3.20;;;;;;;33.78;33.70;98610.19;6921951;28;20220;-83
2022/08/05 16:05:31;;;;;;;7.17;3.73;;;;;;;33.69;34.30;98584.38;6927966;28;20692;-83